地図

経路データ

SID SEASON NUMBER BASIN SUBBASIN NAME ISO_TIME NATURE LAT LON WMO_WIND WMO_PRES WMO_AGENCY TRACK_TYPE DIST2LAND LANDFALL IFLAG USA_AGENCY USA_ATCF_ID USA_LAT USA_LON USA_RECORD USA_STATUS USA_WIND USA_PRES USA_SSHS USA_R34_NE USA_R34_SE USA_R34_SW USA_R34_NW USA_R50_NE USA_R50_SE USA_R50_SW USA_R50_NW USA_R64_NE USA_R64_SE USA_R64_SW USA_R64_NW USA_POCI USA_ROCI USA_RMW USA_EYE TOKYO_LAT TOKYO_LON TOKYO_GRADE TOKYO_WIND TOKYO_PRES TOKYO_R50_DIR TOKYO_R50_LONG TOKYO_R50_SHORT TOKYO_R30_DIR TOKYO_R30_LONG TOKYO_R30_SHORT TOKYO_LAND CMA_LAT CMA_LON CMA_CAT CMA_WIND CMA_PRES HKO_LAT HKO_LON HKO_CAT HKO_WIND HKO_PRES NEWDELHI_LAT NEWDELHI_LON NEWDELHI_GRADE NEWDELHI_WIND NEWDELHI_PRES NEWDELHI_CI NEWDELHI_DP NEWDELHI_POCI REUNION_LAT REUNION_LON REUNION_TYPE REUNION_WIND REUNION_PRES REUNION_TNUM REUNION_CI REUNION_RMW REUNION_R34_NE REUNION_R34_SE REUNION_R34_SW REUNION_R34_NW REUNION_R50_NE REUNION_R50_SE REUNION_R50_SW REUNION_R50_NW REUNION_R64_NE REUNION_R64_SE REUNION_R64_SW REUNION_R64_NW BOM_LAT BOM_LON BOM_TYPE BOM_WIND BOM_PRES BOM_TNUM BOM_CI BOM_RMW BOM_R34_NE BOM_R34_SE BOM_R34_SW BOM_R34_NW BOM_R50_NE BOM_R50_SE BOM_R50_SW BOM_R50_NW BOM_R64_NE BOM_R64_SE BOM_R64_SW BOM_R64_NW BOM_ROCI BOM_POCI BOM_EYE BOM_POS_METHOD BOM_PRES_METHOD NADI_LAT NADI_LON NADI_CAT NADI_WIND NADI_PRES WELLINGTON_LAT WELLINGTON_LON WELLINGTON_WIND WELLINGTON_PRES DS824_LAT DS824_LON DS824_STAGE DS824_WIND DS824_PRES TD9636_LAT TD9636_LON TD9636_STAGE TD9636_WIND TD9636_PRES TD9635_LAT TD9635_LON TD9635_WIND TD9635_PRES TD9635_ROCI NEUMANN_LAT NEUMANN_LON NEUMANN_CLASS NEUMANN_WIND NEUMANN_PRES MLC_LAT MLC_LON MLC_CLASS MLC_WIND MLC_PRES USA_GUST BOM_GUST BOM_GUST_PER REUNION_GUST REUNION_GUST_PER USA_SEAHGT USA_SEARAD_NE USA_SEARAD_SE USA_SEARAD_SW USA_SEARAD_NW STORM_SPEED STORM_DIR
1879052S11057 1879 4 SI MM NOT_NAMED 1879-02-21 06:00:00 NR -10.7000 57.4000 reunion main 856 852 _____O________ -1 -10.7000 57.4000 99 9.90000 2 183
1879052S11057 1879 4 SI MM NOT_NAMED 1879-02-21 09:00:00 NR -10.7883 57.3771 main 852 849 _____P________ -1 -10.7883 57.3771 99 2 192
1879052S11057 1879 4 SI MM NOT_NAMED 1879-02-21 12:00:00 NR -10.8932 57.3563 main 849 835 _____P________ -1 -10.8932 57.3563 99 2 191
1879052S11057 1879 4 SI MM NOT_NAMED 1879-02-21 15:00:00 NR -11.0311 57.3399 main 835 832 _____P________ -1 -11.0311 57.3399 99 3 0
1879052S11057 1879 4 SI MM NOT_NAMED 1879-02-21 18:00:00 NR -11.1950 57.3840 main 840 834 _____P____O___ -1 -11.2188 57.3300 99 -11.1000 57.6000 7 4 169
1879052S11057 1879 4 SI MM NOT_NAMED 1879-02-21 21:00:00 NR -11.4673 57.4254 main 831 825 _____P____P___ -1 -11.4728 57.3288 99 -11.4562 57.6186 7 6 173
1879052S11057 1879 4 SI MM NOT_NAMED 1879-02-22 00:00:00 NR -11.8270 57.4677 main 833 819 _____P____P___ -1 -11.8099 57.3386 99 -11.8499 57.6398 7 8 174
1879052S11057 1879 4 SI MM NOT_NAMED 1879-02-22 03:00:00 NR -12.2827 57.5138 main 819 801 _____P____P___ -1 -12.2467 57.3616 99 -12.3187 57.6660 7 10 176
1879052S11057 1879 4 SI MM NOT_NAMED 1879-02-22 06:00:00 NR -12.8500 57.5500 reunion main 812 738 _____O____O___ -1 -12.8000 57.4000 99 9.90000 -12.9000 57.7000 7 13 176
1879052S11057 1879 4 SI MM NOT_NAMED 1879-02-22 09:00:00 NR -13.5493 57.6004 main 738 649 _____P____P___ -1 -13.4797 57.4560 99 -13.6190 57.7448 7 15 176
1879052S11057 1879 4 SI MM NOT_NAMED 1879-02-22 12:00:00 NR -14.3587 57.6682 main 637 548 _____P____P___ -1 -14.2670 57.5305 99 -14.4504 57.8058 7 17 175
1879052S11057 1879 4 SI MM NOT_NAMED 1879-02-22 15:00:00 NR -15.2464 57.7564 main 548 448 _____P____P___ -1 -15.1362 57.6240 99 -15.3566 57.8889 7 18 174
1879052S11057 1879 4 SI MM NOT_NAMED 1879-02-22 18:00:00 NR -16.1806 57.8686 main 436 337 _____P____O___ -1 -16.0612 57.7372 99 -16.3000 58.0000 7 19 173
1879052S11057 1879 4 SI MM NOT_NAMED 1879-02-22 21:00:00 NR -17.1369 58.0043 main 337 229 _____P____P___ -1 -17.0161 57.8708 99 -17.2576 58.1379 7 20 172
1879052S11057 1879 4 SI MM NOT_NAMED 1879-02-23 00:00:00 NR -18.1060 58.1651 main 229 138 _____P____P___ -1 -17.9747 58.0253 99 -18.2374 58.3048 7 20 170
1879052S11057 1879 4 SI MM NOT_NAMED 1879-02-23 03:00:00 NR -19.0548 58.3480 main 128 85 _____P____P___ -1 -18.9112 58.2016 99 -19.1984 58.4944 7 19 169
1879052S11057 1879 4 SI MM NOT_NAMED 1879-02-23 06:00:00 NR -19.9500 58.5500 reunion main 94 83 _____O____O___ -1 -19.8000 58.4000 99 9.90000 -20.1000 58.7000 7 17 168
1879052S11057 1879 4 SI MM NOT_NAMED 1879-02-23 09:00:00 NR -20.7353 58.7394 main 103 103 _____P____P___ -1 -20.5569 58.5796 99 -20.9136 58.8991 7 16 166
1879052S11057 1879 4 SI MM NOT_NAMED 1879-02-23 12:00:00 NR -21.4710 58.9465 main 167 167 _____P____P___ -1 -21.2801 58.7796 99 -21.6619 59.1135 7 15 164
1879052S11057 1879 4 SI MM NOT_NAMED 1879-02-23 15:00:00 NR -22.1637 59.1746 main 245 245 _____P____P___ -1 -21.9731 59.0032 99 -22.3543 59.3461 7 14 162
1879052S11057 1879 4 SI MM NOT_NAMED 1879-02-23 18:00:00 NR -22.8196 59.4269 main 311 311 _____P____O___ -1 -22.6392 59.2539 99 -23.0000 59.6000 7 14 160
1879052S11057 1879 4 SI MM NOT_NAMED 1879-02-23 21:00:00 NR -23.4436 59.6916 main 384 384 _____P____P___ -1 -23.2818 59.5353 99 -23.6054 59.8480 7 13 157
1879052S11057 1879 4 SI MM NOT_NAMED 1879-02-24 00:00:00 NR -24.0378 59.9858 main 457 457 _____P____P___ -1 -23.9040 59.8509 99 -24.1716 60.1207 7 13 154
1879052S11057 1879 4 SI MM NOT_NAMED 1879-02-24 03:00:00 NR -24.6181 60.3188 main 530 530 _____P____P___ -1 -24.5091 60.2046 99 -24.7270 60.4330 7 13 151
1879052S11057 1879 4 SI MM NOT_NAMED 1879-02-24 06:00:00 NR -25.2000 60.7000 reunion main 608 608 _____O____O___ -1 -25.1000 60.6000 99 9.90000 -25.3000 60.8000 7 15 149
1879052S11057 1879 4 SI MM NOT_NAMED 1879-02-24 09:00:00 NR -25.8581 61.1559 main 701 701 _____P____P___ -1 -25.7595 61.0861 99 -25.9567 61.2257 7 16 147
1879052S11057 1879 4 SI MM NOT_NAMED 1879-02-24 12:00:00 NR -26.5189 61.6671 main 784 784 _____P____P___ -1 -26.4081 61.6248 99 -26.6297 61.7094 7 16 144
1879052S11057 1879 4 SI MM NOT_NAMED 1879-02-24 15:00:00 NR -27.1616 62.2191 main 877 877 _____P____P___ -1 -27.0353 62.1997 99 -27.2878 62.2386 7 16 141
1879052S11057 1879 4 SI MM NOT_NAMED 1879-02-24 18:00:00 NR -27.7655 62.7969 main 965 965 _____P____O___ -1 -27.6310 62.7939 99 -27.9000 62.8000 7 16 138
1879052S11057 1879 4 SI MM NOT_NAMED 1879-02-24 21:00:00 NR -28.3143 63.3855 main 1044 1044 _____P____P___ -1 -28.1849 63.3896 99 -28.4438 63.3814 7 15 135
1879052S11057 1879 4 SI MM NOT_NAMED 1879-02-25 00:00:00 NR -28.7911 63.9724 main 1124 1124 _____P____P___ -1 -28.6873 63.9686 99 -28.9294 63.9774 7 14 132
1879052S11057 1879 4 SI MM NOT_NAMED 1879-02-25 03:00:00 NR -29.2109 64.5361 main 1188 1188 _____P____P___ -1 -29.1287 64.5118 99 -29.3754 64.5847 7 12 130
1879052S11057 1879 4 SI MM NOT_NAMED 1879-02-25 06:00:00 NR -29.5600 65.0400 reunion main 1253 1253 _____O____O___ -1 -29.5000 65.0000 99 9.90000 -29.8000 65.2000 7 10 127
1879052S11057 1879 4 SI MM NOT_NAMED 1879-02-25 09:00:00 NR -29.7955 65.4182 main 1295 1295 _____P________ -1 -29.7955 65.4182 99 7 8 126
1879052S11057 1879 4 SI MM NOT_NAMED 1879-02-25 12:00:00 NR -30.0222 65.7700 main 1336 1336 _____P________ -1 -30.0222 65.7700 99 7 7 125
1879052S11057 1879 4 SI MM NOT_NAMED 1879-02-25 15:00:00 NR -30.1905 66.0642 main 1372 1372 _____P________ -1 -30.1905 66.0642 99 7 5 122
1879052S11057 1879 4 SI MM NOT_NAMED 1879-02-25 18:00:00 NR -30.3103 66.3101 main 1392 1392 _____P________ -1 -30.3103 66.3101 99 4 117
1879052S11057 1879 4 SI MM NOT_NAMED 1879-02-25 21:00:00 NR -30.3915 66.5169 main 1413 1413 _____P________ -1 -30.3915 66.5169 99 4 112
1879052S11057 1879 4 SI MM NOT_NAMED 1879-02-26 00:00:00 NR -30.4437 66.6943 main 1426 1426 _____P________ -1 -30.4437 66.6943 99 3 106
1879052S11057 1879 4 SI MM NOT_NAMED 1879-02-26 03:00:00 NR -30.4767 66.8521 main 1447 1447 _____P________ -1 -30.4767 66.8521 99 3 102
1879052S11057 1879 4 SI MM NOT_NAMED 1879-02-26 06:00:00 NR -30.5000 67.0000 reunion main 1453 _____O________ -1 -30.5000 67.0000 99 9.90000 3 101

IBTrACS Databaseについて

本データベースは、米国NOAAが公開する1842年以降の世界の熱帯低気圧のベストトラックデータアーカイブInternational Best Track Archive for Climate Stewardship (IBTrACS)を、ウェブで閲覧しやすい形式に変換したものです。

最終更新日:2021-11-26